Allen, Washington
Current Conditions -  °F | °C
As of 8:53 AM on Friday 24 Oct 2014 (Local Time) from KBLI Reporting Station
Broken Clouds Broken Clouds  
Wind Chill:   Ceiling: 4000
Heat Index:   Visibility: 10mi
Dew Point:   Wind: 5mph
Humidity: 86%   Direction: 20°NNE
Pressure: 30.06"   Gusts: NA
Location:  48.5689°N, 122.407°W
Report Text: KBLI 241553Z 02004KT 10SM BKN040 08/06 A3006 RMK AO2 SLP186 T00830061
Loading
Personal Weather Stations






























Interactive Weather Map
Tropical Storm Tracking
New forecast layout! Learn more

10-Day Weather Forecast

Advertisements
Track Severe Weather on mobile